Time;durP1;ratioP1;P1;durP2;ratioP2;P2;SDS_P1;SDS_P2;PMS_P1;PMS_P2;Temp;Humidity;BMP_temperature;BMP_pressure;BME280_temperature;BME280_humidity;BME280_pressure;Samples;Min_cycle;Max_cycle;Signal;HPM_P1;HPM_P2
2021/07/25 00:00:19;;;;;;;4.97;4.57;;;;;;;27.04;45.07;97744.81;5055474;28;20239;-60
2021/07/25 00:02:45;;;;;;;5.43;4.70;;;;;;;27.04;45.06;97744.81;5053806;28;20225;-60
2021/07/25 00:05:12;;;;;;;5.70;4.70;;;;;;;27.05;45.03;97742.94;5055045;28;20620;-61
2021/07/25 00:07:39;;;;;;;5.20;4.80;;;;;;;27.02;45.22;97732.69;5055023;28;20183;-60
2021/07/25 00:10:06;;;;;;;5.17;4.67;;;;;;;27.02;45.44;97733.53;5055347;28;20190;-60
2021/07/25 00:12:32;;;;;;;5.43;5.03;;;;;;;27.01;45.39;97720.34;5054983;28;20335;-60
2021/07/25 00:14:59;;;;;;;4.63;4.23;;;;;;;27.03;45.12;97727.13;5054923;28;20188;-60
2021/07/25 00:17:25;;;;;;;5.20;4.70;;;;;;;27.04;45.36;97725.25;5055032;28;20182;-61
2021/07/25 00:19:52;;;;;;;4.70;4.30;;;;;;;27.00;45.17;97729.44;5055093;28;20190;-61
2021/07/25 00:22:18;;;;;;;5.10;4.60;;;;;;;26.99;44.99;97722.47;5054848;28;20216;-61
2021/07/25 00:24:59;;;;;;;5.00;4.60;;;;;;;26.99;45.45;97727.81;5054720;28;20213;-61
2021/07/25 00:27:28;;;;;;;5.37;4.97;;;;;;;26.96;45.30;97725.59;5054721;28;20239;-60
2021/07/25 00:29:54;;;;;;;4.63;4.23;;;;;;;26.99;45.29;97725.13;5053387;28;20193;-60
2021/07/25 00:32:21;;;;;;;5.27;4.77;;;;;;;26.97;45.30;97724.56;5054546;28;20214;-60
2021/07/25 00:34:48;;;;;;;5.00;4.60;;;;;;;26.91;45.36;97713.72;5054620;28;20197;-61
2021/07/25 00:37:15;;;;;;;4.27;3.97;;;;;;;26.93;45.42;97711.63;5054743;28;20208;-61
2021/07/25 00:39:41;;;;;;;5.13;4.20;;;;;;;26.89;45.44;97707.78;5055012;28;20212;-60
2021/07/25 00:42:08;;;;;;;4.83;4.43;;;;;;;26.89;45.41;97707.78;5053409;28;20213;-60
2021/07/25 00:44:35;;;;;;;4.63;4.23;;;;;;;26.86;45.06;97708.25;5053158;28;20208;-60
2021/07/25 00:47:02;;;;;;;5.80;4.03;;;;;;;27.06;45.01;97712.44;5054305;28;20201;-60
2021/07/25 00:49:29;;;;;;;4.80;4.40;;;;;;;26.88;45.00;97711.50;5054553;28;20200;-60
2021/07/25 00:51:55;;;;;;;5.37;4.57;;;;;;;26.91;44.83;97705.69;5054732;28;20202;-60
2021/07/25 00:54:23;;;;;;;4.27;3.93;;;;;;;26.87;45.05;97703.75;5054401;28;20652;-60
2021/07/25 00:56:50;;;;;;;4.20;3.90;;;;;;;26.83;45.04;97698.00;5054347;28;20577;-61
2021/07/25 00:59:16;;;;;;;4.50;4.10;;;;;;;26.84;45.35;97698.81;5052935;28;20194;-60
2021/07/25 01:01:43;;;;;;;4.60;4.20;;;;;;;26.90;44.92;97696.03;5054189;28;20572;-60
2021/07/25 01:04:21;;;;;;;4.60;4.20;;;;;;;26.86;45.04;97686.84;5053931;28;20182;-61
2021/07/25 01:07:11;;;;;;;4.33;3.93;;;;;;;26.89;45.01;97691.72;5054566;28;20184;-61
2021/07/25 01:09:55;;;;;;;4.53;4.10;;;;;;;26.90;45.27;97695.22;5054483;28;20241;-61
2021/07/25 01:12:44;;;;;;;4.40;4.00;;;;;;;26.86;45.23;97694.06;5054105;28;20255;-60
2021/07/25 01:15:17;;;;;;;4.47;4.07;;;;;;;26.82;45.22;97701.72;5054133;28;20193;-61
2021/07/25 01:17:43;;;;;;;4.70;4.30;;;;;;;27.12;44.57;97697.28;5053877;28;20181;-60
2021/07/25 01:20:11;;;;;;;4.27;3.87;;;;;;;27.03;44.78;97703.03;5053727;28;20255;-60
2021/07/25 01:22:41;;;;;;;4.97;4.33;;;;;;;27.02;44.40;97705.91;5053684;28;20214;-61
2021/07/25 01:25:10;;;;;;;4.43;4.03;;;;;;;26.97;44.72;97705.81;5053834;28;20205;-61
2021/07/25 01:27:51;;;;;;;4.53;4.13;;;;;;;27.00;44.42;97719.53;5053584;28;20189;-60
2021/07/25 01:30:23;;;;;;;4.07;3.77;;;;;;;26.99;44.49;97722.47;5053858;28;20173;-60
2021/07/25 01:32:53;;;;;;;4.33;4.03;;;;;;;26.91;44.86;97715.59;5053488;28;20749;-60
2021/07/25 01:35:21;;;;;;;4.30;3.90;;;;;;;26.89;44.88;97717.69;5052115;28;20204;-61
2021/07/25 01:37:48;;;;;;;4.53;3.90;;;;;;;26.88;45.04;97724.09;5053618;28;20189;-60
2021/07/25 01:40:17;;;;;;;3.80;3.50;;;;;;;26.90;44.46;97717.44;5053880;28;20197;-60
2021/07/25 01:42:44;;;;;;;4.30;3.90;;;;;;;26.80;45.25;97719.88;5053232;28;20209;-60
2021/07/25 01:45:12;;;;;;;3.93;3.63;;;;;;;26.73;45.26;97716.50;5053237;28;20217;-61
2021/07/25 01:47:39;;;;;;;3.80;3.50;;;;;;;26.70;45.32;97725.81;5052034;28;20201;-60
2021/07/25 01:50:06;;;;;;;3.93;3.63;;;;;;;26.70;45.24;97720.47;5053247;28;20189;-61
2021/07/25 01:52:33;;;;;;;4.63;4.23;;;;;;;26.74;44.80;97721.63;5053546;28;20209;-61
2021/07/25 01:55:01;;;;;;;4.70;4.30;;;;;;;26.78;45.15;97713.97;5053721;28;20182;-61
2021/07/25 01:57:27;;;;;;;4.27;3.60;;;;;;;26.74;45.28;97718.13;5053186;28;20196;-61
2021/07/25 01:59:54;;;;;;;3.97;3.67;;;;;;;26.73;45.18;97714.66;5051862;28;20194;-60
2021/07/25 02:02:20;;;;;;;4.50;4.10;;;;;;;26.70;45.22;97709.78;5052584;28;20258;-60
2021/07/25 02:04:48;;;;;;;4.17;3.87;;;;;;;26.69;45.14;97707.31;5053809;28;20261;-61
2021/07/25 02:07:14;;;;;;;4.37;4.00;;;;;;;26.68;44.91;97695.78;5053059;28;20194;-60
2021/07/25 02:09:41;;;;;;;3.77;3.47;;;;;;;26.73;44.87;97700.44;5053052;28;20189;-60
2021/07/25 02:12:09;;;;;;;3.90;3.60;;;;;;;26.76;45.11;97710.66;5053482;28;20255;-60
2021/07/25 02:14:38;;;;;;;3.67;3.37;;;;;;;26.70;45.10;97703.59;5052945;28;20192;-61
2021/07/25 02:17:07;;;;;;;3.80;3.50;;;;;;;26.67;45.18;97701.38;5053026;28;20189;-61
2021/07/25 02:19:34;;;;;;;3.30;3.10;;;;;;;26.68;45.18;97700.34;5052998;28;20185;-60
2021/07/25 02:22:01;;;;;;;4.13;3.80;;;;;;;26.68;45.17;97700.34;5052779;28;20749;-60
2021/07/25 02:24:28;;;;;;;3.80;3.50;;;;;;;26.70;44.66;97700.91;5052850;28;20189;-61
2021/07/25 02:26:54;;;;;;;4.07;3.67;;;;;;;26.67;44.97;97704.84;5052844;28;20663;-61
2021/07/25 02:29:21;;;;;;;3.63;3.40;;;;;;;26.77;44.98;97699.75;5053392;28;20239;-61
2021/07/25 02:31:47;;;;;;;4.00;3.70;;;;;;;26.77;44.81;97693.56;5052728;28;20205;-61
2021/07/25 02:34:14;;;;;;;3.57;3.30;;;;;;;26.74;44.50;97699.38;5051374;28;20213;-60
2021/07/25 02:36:40;;;;;;;4.50;3.40;;;;;;;26.72;44.94;97702.31;5053093;28;20522;-60
2021/07/25 02:39:07;;;;;;;3.83;3.53;;;;;;;26.74;44.70;97705.56;5052832;28;20193;-61
2021/07/25 02:41:34;;;;;;;3.97;3.67;;;;;;;26.74;44.64;97700.22;5052640;28;20583;-60
2021/07/25 02:44:01;;;;;;;3.73;3.43;;;;;;;26.73;44.67;97697.75;5052728;28;20196;-61
2021/07/25 02:46:27;;;;;;;3.67;3.37;;;;;;;26.73;44.66;97703.13;5052784;28;20206;-61
2021/07/25 02:48:54;;;;;;;3.70;3.40;;;;;;;26.71;44.95;97706.03;5051320;28;20638;-60
2021/07/25 02:51:21;;;;;;;3.67;3.37;;;;;;;26.74;44.55;97704.75;5053116;28;20204;-60
2021/07/25 02:53:47;;;;;;;3.50;3.20;;;;;;;26.80;44.71;97701.16;5052640;28;20235;-61
2021/07/25 02:56:14;;;;;;;3.70;3.40;;;;;;;26.82;44.72;97706.25;5052810;28;20190;-61
2021/07/25 02:58:40;;;;;;;3.50;3.30;;;;;;;26.78;44.64;97708.59;5052548;28;20193;-61
2021/07/25 03:01:11;;;;;;;3.17;2.97;;;;;;;26.74;44.50;97713.59;5052741;28;20197;-60
2021/07/25 03:03:39;;;;;;;3.67;3.37;;;;;;;26.72;44.89;97712.19;5052826;28;20648;-60
2021/07/25 03:06:05;;;;;;;3.80;3.50;;;;;;;26.76;44.41;97708.00;5052435;28;20683;-61
2021/07/25 03:08:33;;;;;;;3.63;3.33;;;;;;;26.82;44.38;97711.59;5052413;28;20586;-61
2021/07/25 03:11:01;;;;;;;3.73;3.33;;;;;;;26.78;44.71;97711.28;5052476;28;20240;-60
2021/07/25 03:13:28;;;;;;;3.50;3.20;;;;;;;26.80;44.56;97717.22;5052393;28;20600;-61
2021/07/25 03:15:59;;;;;;;3.80;3.50;;;;;;;26.79;44.25;97718.25;5056215;28;20197;-60
2021/07/25 03:18:26;;;;;;;3.70;3.40;;;;;;;26.81;44.23;97724.19;5056318;28;20174;-61
2021/07/25 03:20:53;;;;;;;3.70;3.40;;;;;;;26.77;44.58;97725.69;5054801;28;20216;-61
2021/07/25 03:23:19;;;;;;;3.03;2.83;;;;;;;26.69;44.52;97723.38;5055870;28;20556;-60
2021/07/25 03:25:45;;;;;;;3.70;3.40;;;;;;;26.68;44.80;97721.75;5054511;28;20217;-60
2021/07/25 03:28:12;;;;;;;3.27;3.00;;;;;;;26.63;44.70;97715.25;5055839;28;20185;-60
2021/07/25 03:30:39;;;;;;;3.67;3.37;;;;;;;26.64;44.56;97719.53;5054524;28;20193;-60
2021/07/25 03:33:07;;;;;;;3.53;3.30;;;;;;;26.67;44.74;97722.78;5055697;28;20210;-61
2021/07/25 03:35:35;;;;;;;3.30;3.10;;;;;;;26.67;44.76;97720.91;5054637;28;20247;-60
2021/07/25 03:38:01;;;;;;;3.40;3.10;;;;;;;26.67;44.84;97720.13;5055659;28;20216;-61
2021/07/25 03:40:29;;;;;;;3.40;3.10;;;;;;;26.53;45.15;97733.72;5055637;28;20235;-60
2021/07/25 03:42:57;;;;;;;3.47;3.13;;;;;;;26.51;44.76;97727.78;5055496;28;20221;-60
2021/07/25 03:45:24;;;;;;;3.30;3.10;;;;;;;26.54;44.83;97724.63;5055429;28;20529;-60
2021/07/25 03:47:51;;;;;;;2.87;2.67;;;;;;;26.52;45.14;97726.75;5055438;28;20243;-61
2021/07/25 03:50:18;;;;;;;3.23;2.93;;;;;;;26.49;44.91;97728.00;5055389;28;20200;-60
2021/07/25 03:52:44;;;;;;;3.40;3.10;;;;;;;26.52;44.83;97732.09;5055445;28;20209;-60
2021/07/25 03:55:11;;;;;;;3.30;3.10;;;;;;;26.49;44.78;97727.22;5054647;28;20581;-60
2021/07/25 03:57:38;;;;;;;3.20;3.00;;;;;;;26.50;44.86;97726.16;5055596;28;20208;-60
2021/07/25 04:00:06;;;;;;;3.37;3.07;;;;;;;26.50;45.04;97723.47;5055251;28;20651;-60
2021/07/25 04:02:32;;;;;;;3.23;3.03;;;;;;;26.55;44.79;97728.16;5055440;28;20213;-60
2021/07/25 04:04:59;;;;;;;3.67;3.37;;;;;;;26.57;44.73;97723.38;5053860;28;20192;-60
2021/07/25 04:07:25;;;;;;;2.83;2.63;;;;;;;26.43;45.18;97720.91;5055567;28;20235;-60
2021/07/25 04:09:52;;;;;;;3.50;3.20;;;;;;;26.38;45.45;97733.34;5055323;28;20530;-60
2021/07/25 04:12:18;;;;;;;3.73;3.43;;;;;;;26.53;44.98;97725.69;5054076;28;20263;-60
2021/07/25 04:14:45;;;;;;;3.07;2.77;;;;;;;26.52;44.80;97724.06;5055791;28;20189;-60
2021/07/25 04:17:12;;;;;;;3.40;3.10;;;;;;;26.50;45.12;97728.84;5053731;28;20185;-60
2021/07/25 04:19:39;;;;;;;3.20;3.00;;;;;;;26.50;45.05;97724.28;5054875;28;20682;-61
2021/07/25 04:22:05;;;;;;;3.33;3.13;;;;;;;26.39;45.31;97721.59;5054791;28;20239;-60
2021/07/25 04:24:32;;;;;;;3.23;2.93;;;;;;;26.35;45.10;97718.56;5053398;28;20194;-60
2021/07/25 04:26:58;;;;;;;2.83;2.63;;;;;;;26.31;45.47;97722.75;5055173;28;20205;-60
2021/07/25 04:29:25;;;;;;;3.10;2.90;;;;;;;26.31;45.20;97715.56;5053761;28;20193;-60
2021/07/25 04:31:52;;;;;;;2.80;2.60;;;;;;;26.30;45.41;97721.94;5054632;28;20204;-60
2021/07/25 04:34:19;;;;;;;3.03;2.80;;;;;;;26.29;45.50;97720.28;5054509;28;20185;-61
2021/07/25 04:36:46;;;;;;;3.13;2.93;;;;;;;26.29;45.46;97714.94;5055102;28;20181;-61
2021/07/25 04:39:13;;;;;;;2.90;2.70;;;;;;;26.30;45.25;97719.28;5054523;28;20185;-61
2021/07/25 04:41:42;;;;;;;3.27;2.97;;;;;;;26.31;45.51;97715.56;5054462;28;20688;-60
2021/07/25 04:44:27;;;;;;;3.50;3.17;;;;;;;26.32;45.52;97719.84;5054465;28;20192;-60
2021/07/25 04:46:57;;;;;;;3.03;2.80;;;;;;;26.34;44.98;97717.75;5053121;28;20757;-60
2021/07/25 04:49:31;;;;;;;3.07;2.87;;;;;;;26.32;45.13;97719.84;5054630;28;20201;-60
2021/07/25 04:51:59;;;;;;;3.30;3.00;;;;;;;26.34;45.32;97725.78;5053308;28;20533;-60
2021/07/25 04:54:34;;;;;;;3.00;2.80;;;;;;;26.36;44.96;97729.03;5053019;28;20198;-60
2021/07/25 04:57:04;;;;;;;3.07;2.87;;;;;;;26.34;45.08;97736.50;5054286;28;20184;-60
2021/07/25 04:59:46;;;;;;;3.00;2.80;;;;;;;26.34;45.07;97727.63;5052925;28;20273;-61
2021/07/25 05:02:16;;;;;;;2.87;2.67;;;;;;;26.34;45.41;97723.13;5054344;28;20613;-60
2021/07/25 05:04:47;;;;;;;2.70;2.50;;;;;;;26.35;45.18;97735.44;5054332;28;20201;-61
2021/07/25 05:07:14;;;;;;;3.10;2.90;;;;;;;26.35;45.21;97727.41;5053963;28;20201;-60
2021/07/25 05:09:43;;;;;;;3.53;3.23;;;;;;;26.40;45.29;97732.09;5054513;28;20192;-60
2021/07/25 05:12:20;;;;;;;3.10;2.90;;;;;;;26.37;45.31;97727.16;5053827;28;20216;-60
2021/07/25 05:14:53;;;;;;;2.80;2.60;;;;;;;26.36;45.00;97731.72;5052669;28;20557;-60
2021/07/25 05:17:25;;;;;;;3.03;2.83;;;;;;;26.39;45.16;97734.97;5053855;28;20186;-61
2021/07/25 05:20:03;;;;;;;3.20;2.90;;;;;;;26.41;44.87;97740.91;5052648;28;20186;-61
2021/07/25 05:23:12;;;;;;;3.07;2.87;;;;;;;26.44;44.73;97743.13;5052751;28;20568;-61
2021/07/25 05:25:40;;;;;;;2.90;2.70;;;;;;;26.42;44.62;97742.53;5042718;28;20216;-61
2021/07/25 05:28:07;;;;;;;3.00;2.80;;;;;;;26.40;44.98;97744.63;5053622;28;20189;-61
2021/07/25 05:30:38;;;;;;;2.90;2.70;;;;;;;26.31;45.32;97739.63;5053613;28;20682;-61
2021/07/25 05:33:07;;;;;;;3.10;2.90;;;;;;;26.31;45.17;97744.97;5052288;28;20221;-60
2021/07/25 05:35:34;;;;;;;3.07;2.87;;;;;;;26.28;44.96;97748.09;5052152;28;20200;-61
2021/07/25 05:38:00;;;;;;;3.30;3.10;;;;;;;26.28;45.32;97745.41;5051518;28;20202;-61
2021/07/25 05:40:27;;;;;;;3.27;3.00;;;;;;;26.38;44.84;97754.75;5053405;28;20189;-60
2021/07/25 05:42:53;;;;;;;3.07;2.87;;;;;;;26.48;44.93;97749.66;5053774;28;20214;-61
2021/07/25 05:45:20;;;;;;;3.17;2.93;;;;;;;26.44;44.74;97751.97;5053971;28;20193;-61
2021/07/25 05:47:46;;;;;;;3.10;2.90;;;;;;;26.40;45.17;97752.66;5053318;28;20659;-60
2021/07/25 05:50:13;;;;;;;3.13;2.93;;;;;;;26.44;44.89;97753.81;5052061;28;20197;-60
2021/07/25 05:52:51;;;;;;;3.53;3.23;;;;;;;26.46;45.08;97757.09;5053229;28;20212;-60
2021/07/25 05:55:22;;;;;;;2.90;2.70;;;;;;;26.44;45.01;97749.28;5052057;28;20203;-60
2021/07/25 05:57:50;;;;;;;3.30;2.50;;;;;;;26.47;44.92;97748.03;5053438;28;20178;-60
2021/07/25 06:00:17;;;;;;;3.00;2.80;;;;;;;26.47;44.84;97748.81;5042385;28;20244;-59
2021/07/25 06:02:58;;;;;;;3.47;3.17;;;;;;;26.51;44.55;97751.88;5033273;28;20718;-60
2021/07/25 06:05:26;;;;;;;2.90;2.70;;;;;;;26.47;44.54;97748.81;5033228;28;20213;-60
2021/07/25 06:07:53;;;;;;;3.20;3.00;;;;;;;26.49;44.77;97743.25;5031843;28;20190;-60
2021/07/25 06:10:21;;;;;;;3.00;2.80;;;;;;;26.51;44.46;97746.50;5033144;28;20182;-60
2021/07/25 06:12:48;;;;;;;3.13;2.90;;;;;;;26.51;44.87;97749.19;5033529;28;20214;-61
2021/07/25 06:15:14;;;;;;;3.20;2.80;;;;;;;26.50;44.82;97759.06;5033373;28;20182;-60
2021/07/25 06:17:41;;;;;;;2.90;2.70;;;;;;;26.48;44.66;97755.00;5032998;28;20182;-60
2021/07/25 06:20:08;;;;;;;2.73;2.53;;;;;;;26.50;44.80;97747.56;5032995;28;20186;-60
2021/07/25 06:22:42;;;;;;;2.93;2.50;;;;;;;26.45;44.94;97748.25;5033049;28;20202;-60
2021/07/25 06:25:10;;;;;;;3.20;2.90;;;;;;;26.49;44.58;97745.94;5033258;28;20211;-60
2021/07/25 06:27:38;;;;;;;3.20;2.90;;;;;;;26.50;44.91;97752.91;5032132;28;20206;-60
2021/07/25 06:30:05;;;;;;;2.83;2.63;;;;;;;26.47;44.92;97748.81;5033154;28;20197;-61
2021/07/25 06:33:07;;;;;;;4.70;4.27;;;;;;;26.47;45.11;97753.38;5032729;28;20625;-59
2021/07/25 06:35:38;;;;;;;5.43;4.93;;;;;;;26.40;45.13;97752.66;5031383;28;20209;-60
2021/07/25 06:38:13;;;;;;;6.50;5.90;;;;;;;26.36;46.11;97758.47;5031931;28;20177;-61
2021/07/25 06:40:57;;;;;;;8.50;6.73;;;;;;;26.38;46.21;97752.91;5032788;28;20170;-61
2021/07/25 06:43:24;;;;;;;7.40;6.50;;;;;;;26.43;46.48;97758.38;5032760;28;20668;-61
2021/07/25 06:45:53;;;;;;;6.40;5.80;;;;;;;26.35;47.02;97756.84;5031325;28;20711;-62
2021/07/25 06:48:24;;;;;;;6.93;6.33;;;;;;;26.36;47.04;97763.81;5033775;28;20527;-62
2021/07/25 06:50:56;;;;;;;7.83;6.60;;;;;;;26.44;46.81;97764.50;5036546;28;20186;-61
2021/07/25 06:53:24;;;;;;;6.80;6.20;;;;;;;26.49;46.65;97773.47;5036478;28;20214;-61
2021/07/25 06:55:53;;;;;;;7.37;6.60;;;;;;;26.56;46.89;97778.72;5036809;28;20264;-61
2021/07/25 06:58:20;;;;;;;8.33;6.73;;;;;;;26.55;46.58;97777.09;5035863;28;20601;-61
2021/07/25 07:00:46;;;;;;;7.53;6.10;;;;;;;26.54;46.65;97778.16;5036451;28;20191;-59
2021/07/25 07:03:17;;;;;;;8.13;6.93;;;;;;;26.52;46.95;97779.41;5036415;28;20281;-60
2021/07/25 07:05:43;;;;;;;8.90;6.83;;;;;;;26.48;47.11;97784.44;5034816;28;20187;-61
2021/07/25 07:08:10;;;;;;;7.17;6.47;;;;;;;26.50;47.41;97780.47;5036074;28;20554;-61
2021/07/25 07:10:39;;;;;;;6.80;6.00;;;;;;;26.48;47.37;97787.09;5036750;28;20187;-60
2021/07/25 07:13:12;;;;;;;7.73;6.90;;;;;;;26.46;47.65;97786.53;5036083;28;20633;-60
2021/07/25 07:15:45;;;;;;;7.37;6.57;;;;;;;26.44;48.12;97783.25;5035209;28;20194;-59
2021/07/25 07:18:12;;;;;;;8.17;7.30;;;;;;;26.43;47.92;97781.59;5036577;28;20184;-59
2021/07/25 07:20:38;;;;;;;8.43;7.37;;;;;;;26.39;48.27;97783.13;5034786;28;20265;-60
2021/07/25 07:23:08;;;;;;;9.63;7.20;;;;;;;26.39;48.04;97783.94;5035778;28;20327;-60
2021/07/25 07:25:36;;;;;;;9.03;6.57;;;;;;;26.39;47.89;97783.94;5036192;28;20193;-58
2021/07/25 07:28:04;;;;;;;8.77;7.23;;;;;;;26.36;47.94;97787.88;5034741;28;20613;-60
2021/07/25 07:30:31;;;;;;;7.33;6.70;;;;;;;26.39;48.36;97794.66;5035782;28;20190;-59
2021/07/25 07:33:25;;;;;;;7.60;6.90;;;;;;;26.41;48.38;97784.53;5035603;28;20579;-61
2021/07/25 07:35:52;;;;;;;9.47;6.73;;;;;;;26.43;48.12;97789.63;5035677;28;20668;-61
2021/07/25 07:38:19;;;;;;;8.07;6.63;;;;;;;26.45;48.00;97788.38;5035549;28;20190;-61
2021/07/25 07:40:46;;;;;;;8.90;7.07;;;;;;;26.50;48.02;97791.16;5035581;28;20193;-60
2021/07/25 07:43:14;;;;;;;9.53;7.43;;;;;;;26.52;47.99;97787.44;5035935;28;20206;-61
2021/07/25 07:45:41;;;;;;;7.13;6.40;;;;;;;26.56;47.81;97788.63;5034243;28;20248;-61
2021/07/25 07:48:08;;;;;;;8.03;7.03;;;;;;;26.53;47.50;97795.25;5035259;28;20264;-61
2021/07/25 07:50:35;;;;;;;7.60;6.80;;;;;;;26.54;47.87;97791.53;5035743;28;20244;-60
2021/07/25 07:53:02;;;;;;;7.20;6.50;;;;;;;26.49;48.00;97792.22;5035464;28;20266;-59
2021/07/25 07:55:29;;;;;;;9.20;6.73;;;;;;;26.51;47.74;97786.66;5035300;28;20194;-62
2021/07/25 07:57:56;;;;;;;7.77;6.97;;;;;;;26.50;47.47;97785.00;5035107;28;20660;-61
2021/07/25 08:00:22;;;;;;;7.30;6.37;;;;;;;26.49;47.69;97794.09;5033950;28;20851;-61
2021/07/25 08:02:49;;;;;;;7.10;6.40;;;;;;;26.48;48.05;97789.78;5034239;28;20206;-61
2021/07/25 08:05:18;;;;;;;7.23;6.53;;;;;;;26.53;47.54;97789.06;5033672;28;20199;-61
2021/07/25 08:07:44;;;;;;;7.40;6.37;;;;;;;26.59;47.60;97783.63;5033988;28;20210;-61
2021/07/25 08:10:12;;;;;;;7.17;6.47;;;;;;;26.65;47.19;97792.59;5034962;28;20190;-63
2021/07/25 08:12:39;;;;;;;7.30;6.60;;;;;;;26.72;47.09;97787.13;5035072;28;20715;-61
2021/07/25 08:15:07;;;;;;;7.23;6.40;;;;;;;26.73;47.06;97783.41;5034872;28;20738;-62
2021/07/25 08:17:34;;;;;;;9.13;6.77;;;;;;;26.77;46.90;97789.91;5034777;28;20309;-61
2021/07/25 08:20:00;;;;;;;7.50;6.73;;;;;;;26.74;46.86;97787.72;5033548;28;20205;-62
2021/07/25 08:22:27;;;;;;;6.67;5.97;;;;;;;26.73;47.17;97786.09;5034676;28;20213;-61
2021/07/25 08:24:53;;;;;;;6.83;6.13;;;;;;;26.71;46.90;97789.00;5034759;28;20260;-61
2021/07/25 08:27:20;;;;;;;6.73;6.03;;;;;;;26.73;46.97;97788.75;5035112;28;20210;-61
2021/07/25 08:29:47;;;;;;;7.07;6.30;;;;;;;26.77;46.60;97789.91;5035126;28;20186;-61
2021/07/25 08:32:13;;;;;;;6.30;5.77;;;;;;;26.83;46.62;97782.81;5034407;28;20219;-61
2021/07/25 08:34:40;;;;;;;7.13;6.43;;;;;;;26.86;46.22;97788.56;5034380;28;20193;-61
2021/07/25 08:37:07;;;;;;;6.57;5.97;;;;;;;26.91;46.21;97786.00;5034588;28;20175;-61
2021/07/25 08:39:33;;;;;;;8.40;5.90;;;;;;;26.95;45.87;97782.88;5034912;28;20197;-61
2021/07/25 08:42:07;;;;;;;6.20;5.37;;;;;;;27.01;45.86;97780.06;5034464;28;20220;-61
2021/07/25 08:44:46;;;;;;;6.20;5.70;;;;;;;27.04;45.99;97784.16;5034362;28;20182;-62
2021/07/25 08:47:20;;;;;;;6.27;5.53;;;;;;;27.04;45.70;97781.47;5034130;28;20205;-62
2021/07/25 08:50:11;;;;;;;6.03;5.40;;;;;;;27.04;45.87;97773.44;5033279;28;20228;-62
2021/07/25 08:52:44;;;;;;;6.53;5.93;;;;;;;27.06;45.62;97776.69;5024157;28;20736;-61
2021/07/25 08:55:16;;;;;;;6.17;5.57;;;;;;;27.05;45.84;97772.38;5034178;28;20202;-61
2021/07/25 08:57:46;;;;;;;5.50;5.00;;;;;;;27.09;45.73;97770.84;5034120;28;20170;-61
2021/07/25 09:00:16;;;;;;;6.07;5.47;;;;;;;27.15;45.38;97777.97;5033973;28;20190;-61
2021/07/25 09:02:43;;;;;;;6.17;5.57;;;;;;;27.16;45.21;97771.56;5033807;28;20264;-61
2021/07/25 09:05:11;;;;;;;6.57;5.90;;;;;;;27.19;45.33;97776.44;5033928;28;20217;-61
2021/07/25 09:07:40;;;;;;;6.37;5.80;;;;;;;27.23;44.83;97781.34;5033716;28;20301;-61
2021/07/25 09:10:15;;;;;;;6.00;5.40;;;;;;;27.24;44.66;97782.97;5033783;28;20661;-61
2021/07/25 09:12:43;;;;;;;6.40;5.80;;;;;;;27.20;45.07;97790.66;5031806;28;20214;-61
2021/07/25 09:15:15;;;;;;;7.00;5.77;;;;;;;27.19;45.27;97789.03;5033736;28;20608;-61
2021/07/25 09:17:43;;;;;;;6.23;5.73;;;;;;;27.27;44.58;97785.19;5032541;28;20236;-61
2021/07/25 09:20:13;;;;;;;6.40;5.80;;;;;;;27.30;44.47;97782.84;5033888;28;20190;-61
2021/07/25 09:22:56;;;;;;;6.37;5.73;;;;;;;27.36;44.48;97789.13;5033413;28;20300;-61
2021/07/25 09:25:22;;;;;;;6.27;5.70;;;;;;;27.38;44.38;97787.00;5033851;28;20179;-61
2021/07/25 09:28:11;;;;;;;5.53;5.03;;;;;;;27.38;44.41;97787.00;5033452;28;20219;-61
2021/07/25 09:30:38;;;;;;;6.23;5.30;;;;;;;27.42;44.23;97788.19;5033666;28;20187;-61
2021/07/25 09:33:21;;;;;;;5.90;5.40;;;;;;;27.43;44.43;97789.81;5032093;28;20234;-61
2021/07/25 09:35:48;;;;;;;5.67;5.10;;;;;;;27.47;44.24;97785.63;5033277;28;20222;-61
2021/07/25 09:38:17;;;;;;;5.57;5.07;;;;;;;27.51;44.37;97795.84;5033398;28;20244;-61
2021/07/25 09:40:45;;;;;;;6.17;5.67;;;;;;;27.52;44.04;97802.84;5032412;28;20603;-61
2021/07/25 09:43:13;;;;;;;5.87;5.37;;;;;;;27.51;44.34;97803.91;5033204;28;20263;-61
2021/07/25 09:45:50;;;;;;;5.60;5.10;;;;;;;27.45;44.09;97801.13;5033172;28;20274;-61
2021/07/25 09:48:29;;;;;;;5.53;5.03;;;;;;;27.41;44.22;97799.13;5033397;28;20268;-62
2021/07/25 09:51:01;;;;;;;5.70;5.20;;;;;;;27.40;44.08;97802.88;5033414;28;20176;-61
2021/07/25 09:53:53;;;;;;;5.20;4.70;;;;;;;27.38;44.37;97797.72;5033129;28;20694;-61
2021/07/25 09:56:27;;;;;;;6.00;5.50;;;;;;;27.38;44.34;97796.94;5033341;28;20639;-62
2021/07/25 09:58:55;;;;;;;5.57;5.07;;;;;;;27.38;44.32;97805.78;5032370;28;20183;-61
2021/07/25 10:01:35;;;;;;;5.80;5.30;;;;;;;27.45;44.37;97798.44;5032967;28;20187;-62
2021/07/25 10:04:19;;;;;;;5.63;5.13;;;;;;;27.45;44.17;97798.44;5033273;28;20176;-61
2021/07/25 10:06:50;;;;;;;5.70;5.20;;;;;;;27.51;43.74;97793.16;5032247;28;20188;-62
2021/07/25 10:09:19;;;;;;;5.83;5.33;;;;;;;27.53;43.78;97791.09;5032877;28;20190;-62
2021/07/25 10:11:54;;;;;;;5.40;4.90;;;;;;;27.57;44.06;97793.06;5032852;28;20213;-62
2021/07/25 10:14:21;;;;;;;5.07;4.67;;;;;;;27.56;44.07;97798.66;5033101;28;20532;-60
2021/07/25 10:16:52;;;;;;;5.90;5.40;;;;;;;27.57;43.59;97790.41;5031517;28;20709;-60
2021/07/25 10:19:42;;;;;;;6.47;4.73;;;;;;;27.61;43.82;97788.88;5032976;28;20194;-61
2021/07/25 10:22:10;;;;;;;5.50;5.10;;;;;;;27.63;43.63;97781.41;5033146;28;20207;-61
2021/07/25 10:24:43;;;;;;;5.27;4.87;;;;;;;27.59;44.04;97782.94;5036355;28;20186;-62
2021/07/25 10:27:10;;;;;;;6.20;5.60;;;;;;;27.61;43.82;97777.34;5036734;28;20260;-61
2021/07/25 10:29:40;;;;;;;5.57;4.97;;;;;;;27.58;43.78;97775.13;5036785;28;20195;-61
2021/07/25 10:32:08;;;;;;;5.40;5.00;;;;;;;27.54;43.91;97776.66;5036652;28;20634;-61
2021/07/25 10:34:37;;;;;;;5.60;5.10;;;;;;;27.52;43.95;97774.22;5036599;28;20197;-61
2021/07/25 10:37:04;;;;;;;5.40;4.97;;;;;;;27.47;44.21;97771.38;5035354;28;20609;-62
2021/07/25 10:39:31;;;;;;;5.23;4.83;;;;;;;27.54;43.68;97768.59;5036905;28;20653;-62
2021/07/25 10:42:01;;;;;;;5.47;4.97;;;;;;;27.58;43.71;97767.06;5036474;28;20211;-61
2021/07/25 10:44:29;;;;;;;5.10;4.70;;;;;;;27.61;43.48;97764.75;5036831;28;20182;-61
2021/07/25 10:47:23;;;;;;;5.60;5.10;;;;;;;27.57;44.00;97765.44;5036381;28;20190;-61
2021/07/25 10:49:57;;;;;;;4.97;4.60;;;;;;;27.55;43.84;97767.56;5036779;28;20644;-61
2021/07/25 10:52:24;;;;;;;5.00;4.60;;;;;;;27.57;43.45;97760.91;5036388;28;20229;-61
2021/07/25 10:54:51;;;;;;;5.00;4.60;;;;;;;27.58;43.61;97757.19;5036349;28;20660;-62
2021/07/25 10:57:18;;;;;;;5.27;4.87;;;;;;;27.58;44.09;97751.00;5035073;28;20194;-61
2021/07/25 10:59:52;;;;;;;5.10;4.70;;;;;;;27.54;44.07;97755.22;5036454;28;20694;-61
2021/07/25 11:02:39;;;;;;;5.03;4.63;;;;;;;27.51;43.74;97756.50;5036378;28;20363;-61
2021/07/25 11:05:06;;;;;;;4.83;4.43;;;;;;;27.49;43.90;97758.56;5034796;28;20209;-62
2021/07/25 11:07:35;;;;;;;5.00;4.57;;;;;;;27.54;43.58;97760.56;5035968;28;20210;-61
2021/07/25 11:10:07;;;;;;;4.80;4.40;;;;;;;27.51;43.92;97750.31;5036073;28;20244;-62
2021/07/25 11:12:50;;;;;;;5.00;4.60;;;;;;;27.46;44.21;97749.16;5036491;28;20211;-62
2021/07/25 11:15:31;;;;;;;4.87;4.47;;;;;;;27.49;43.73;97755.88;5035966;28;20197;-62
2021/07/25 11:18:01;;;;;;;4.97;4.57;;;;;;;27.48;44.05;97751.56;5035918;28;20708;-61
2021/07/25 11:21:12;;;;;;;5.03;4.57;;;;;;;27.42;44.06;97753.38;5034733;28;20186;-61
2021/07/25 11:23:39;;;;;;;4.83;4.47;;;;;;;27.41;44.14;97751.72;4975096;28;20693;-62
2021/07/25 11:26:34;;;;;;;5.20;4.80;;;;;;;27.39;44.15;97744.97;4974903;28;20200;-62
2021/07/25 11:29:03;;;;;;;5.43;4.93;;;;;;;27.42;44.34;97745.31;5010085;28;20740;-62
2021/07/25 11:31:38;;;;;;;4.97;4.57;;;;;;;27.43;43.85;97744.28;5035556;28;20213;-61
2021/07/25 11:34:07;;;;;;;4.80;4.40;;;;;;;27.41;44.39;97749.03;5035255;28;20186;-62
2021/07/25 11:36:34;;;;;;;4.70;4.30;;;;;;;27.42;44.21;97750.69;5033727;28;20179;-61
2021/07/25 11:39:03;;;;;;;4.97;4.57;;;;;;;27.40;44.07;97750.09;5035498;28;20609;-62
2021/07/25 11:41:32;;;;;;;4.70;4.30;;;;;;;27.43;44.08;97738.09;5035444;28;20688;-61
2021/07/25 11:44:06;;;;;;;4.43;4.13;;;;;;;27.42;44.23;97742.66;5035739;28;20217;-62
2021/07/25 11:46:38;;;;;;;4.53;4.23;;;;;;;27.46;44.25;97743.78;5035689;28;20607;-61